sensor_id;sensor_type;location;lat;lon;timestamp;temperature;humidity
11639;DHT22;5875;35.940;126.892;2023-05-10T00:00:40;17.70;99.90
11639;DHT22;5875;35.940;126.892;2023-05-10T00:03:08;18.00;99.90
11639;DHT22;5875;35.940;126.892;2023-05-10T00:05:35;18.20;99.90
11639;DHT22;5875;35.940;126.892;2023-05-10T00:08:02;18.10;99.90
11639;DHT22;5875;35.940;126.892;2023-05-10T00:10:30;18.30;99.90
11639;DHT22;5875;35.940;126.892;2023-05-10T00:13:06;18.40;99.90
11639;DHT22;5875;35.940;126.892;2023-05-10T00:15:33;18.50;99.90
11639;DHT22;5875;35.940;126.892;2023-05-10T00:18:01;18.50;99.90
11639;DHT22;5875;35.940;126.892;2023-05-10T00:20:28;18.50;99.90
11639;DHT22;5875;35.940;126.892;2023-05-10T00:22:56;18.80;99.90
11639;DHT22;5875;35.940;126.892;2023-05-10T00:25:23;18.90;99.90
11639;DHT22;5875;35.940;126.892;2023-05-10T00:27:50;19.00;99.90
11639;DHT22;5875;35.940;126.892;2023-05-10T00:30:17;19.10;99.90
11639;DHT22;5875;35.940;126.892;2023-05-10T00:32:45;19.10;99.90
11639;DHT22;5875;35.940;126.892;2023-05-10T00:35:14;19.30;99.90
11639;DHT22;5875;35.940;126.892;2023-05-10T00:37:41;19.40;99.90
11639;DHT22;5875;35.940;126.892;2023-05-10T00:40:09;19.50;99.90
11639;DHT22;5875;35.940;126.892;2023-05-10T01:07:08;19.60;99.90
11639;DHT22;5875;35.940;126.892;2023-05-10T01:09:35;20.70;99.90
11639;DHT22;5875;35.940;126.892;2023-05-10T01:12:03;20.90;99.90
11639;DHT22;5875;35.940;126.892;2023-05-10T01:59:18;21.10;99.90
11639;DHT22;5875;35.940;126.892;2023-05-10T02:01:47;23.30;99.90
11639;DHT22;5875;35.940;126.892;2023-05-10T18:52:38;23.60;99.90
11639;DHT22;5875;35.940;126.892;2023-05-10T18:55:06;13.80;99.90
11639;DHT22;5875;35.940;126.892;2023-05-10T18:57:33;13.50;99.90
11639;DHT22;5875;35.940;126.892;2023-05-10T19:00:08;13.30;99.90
11639;DHT22;5875;35.940;126.892;2023-05-10T19:02:39;13.40;99.90
11639;DHT22;5875;35.940;126.892;2023-05-10T19:05:07;13.40;99.90
11639;DHT22;5875;35.940;126.892;2023-05-10T19:07:35;13.50;99.90
11639;DHT22;5875;35.940;126.892;2023-05-10T19:10:02;13.60;99.90
11639;DHT22;5875;35.940;126.892;2023-05-10T19:12:29;13.70;99.90
11639;DHT22;5875;35.940;126.892;2023-05-10T19:14:57;13.80;99.90
11639;DHT22;5875;35.940;126.892;2023-05-10T19:17:24;13.90;99.90
11639;DHT22;5875;35.940;126.892;2023-05-10T19:19:51;13.90;99.90
11639;DHT22;5875;35.940;126.892;2023-05-10T19:22:18;13.90;99.90
11639;DHT22;5875;35.940;126.892;2023-05-10T19:24:46;13.90;99.90
11639;DHT22;5875;35.940;126.892;2023-05-10T19:27:13;13.90;99.90
11639;DHT22;5875;35.940;126.892;2023-05-10T19:29:40;13.90;99.90
11639;DHT22;5875;35.940;126.892;2023-05-10T19:32:08;13.90;99.90
11639;DHT22;5875;35.940;126.892;2023-05-10T19:34:36;13.80;99.90
11639;DHT22;5875;35.940;126.892;2023-05-10T19:37:03;13.80;99.90
11639;DHT22;5875;35.940;126.892;2023-05-10T19:39:31;13.90;99.90
11639;DHT22;5875;35.940;126.892;2023-05-10T19:41:58;13.90;99.90
11639;DHT22;5875;35.940;126.892;2023-05-10T19:44:26;13.90;99.90
11639;DHT22;5875;35.940;126.892;2023-05-10T19:46:53;13.80;99.90
11639;DHT22;5875;35.940;126.892;2023-05-10T19:49:20;13.80;99.90
11639;DHT22;5875;35.940;126.892;2023-05-10T19:51:47;13.80;99.90
11639;DHT22;5875;35.940;126.892;2023-05-10T19:54:14;13.80;99.90
11639;DHT22;5875;35.940;126.892;2023-05-10T19:56:42;13.70;99.90
11639;DHT22;5875;35.940;126.892;2023-05-10T19:59:09;13.80;99.90
11639;DHT22;5875;35.940;126.892;2023-05-10T20:01:36;13.80;99.90
11639;DHT22;5875;35.940;126.892;2023-05-10T20:04:03;13.80;99.90
11639;DHT22;5875;35.940;126.892;2023-05-10T20:31:01;13.70;99.90
11639;DHT22;5875;35.940;126.892;2023-05-10T20:33:29;12.60;99.90
11639;DHT22;5875;35.940;126.892;2023-05-10T20:35:56;12.60;99.90
11639;DHT22;5875;35.940;126.892;2023-05-10T20:38:23;12.60;99.90
11639;DHT22;5875;35.940;126.892;2023-05-10T20:40:51;12.30;99.90
11639;DHT22;5875;35.940;126.892;2023-05-10T20:43:18;12.50;99.90
11639;DHT22;5875;35.940;126.892;2023-05-10T20:45:46;12.30;99.90
11639;DHT22;5875;35.940;126.892;2023-05-10T20:48:14;12.30;99.90
11639;DHT22;5875;35.940;126.892;2023-05-10T20:50:42;12.60;99.90
11639;DHT22;5875;35.940;126.892;2023-05-10T20:53:10;12.70;99.90
11639;DHT22;5875;35.940;126.892;2023-05-10T20:55:37;12.90;99.90
11639;DHT22;5875;35.940;126.892;2023-05-10T20:58:04;12.90;99.90
11639;DHT22;5875;35.940;126.892;2023-05-10T21:00:31;12.70;99.90
11639;DHT22;5875;35.940;126.892;2023-05-10T21:02:58;12.60;99.90
11639;DHT22;5875;35.940;126.892;2023-05-10T21:05:25;12.60;99.90
11639;DHT22;5875;35.940;126.892;2023-05-10T21:07:53;12.80;99.90
11639;DHT22;5875;35.940;126.892;2023-05-10T21:10:20;12.90;99.90
11639;DHT22;5875;35.940;126.892;2023-05-10T21:12:47;13.00;99.90
11639;DHT22;5875;35.940;126.892;2023-05-10T21:15:15;13.10;99.90
11639;DHT22;5875;35.940;126.892;2023-05-10T21:17:43;13.30;99.90
11639;DHT22;5875;35.940;126.892;2023-05-10T21:20:11;13.40;99.90
11639;DHT22;5875;35.940;126.892;2023-05-10T21:22:39;13.40;99.90
11639;DHT22;5875;35.940;126.892;2023-05-10T21:25:06;13.50;99.90
11639;DHT22;5875;35.940;126.892;2023-05-10T21:27:34;13.60;99.90
11639;DHT22;5875;35.940;126.892;2023-05-10T21:30:01;13.70;99.90
11639;DHT22;5875;35.940;126.892;2023-05-10T21:32:28;13.80;99.90
11639;DHT22;5875;35.940;126.892;2023-05-10T21:34:56;13.80;99.90
11639;DHT22;5875;35.940;126.892;2023-05-10T21:37:23;13.60;99.90
11639;DHT22;5875;35.940;126.892;2023-05-10T21:39:50;13.60;99.90
11639;DHT22;5875;35.940;126.892;2023-05-10T21:42:20;13.80;99.90
11639;DHT22;5875;35.940;126.892;2023-05-10T21:44:48;14.00;99.90
11639;DHT22;5875;35.940;126.892;2023-05-10T21:47:15;14.00;99.90
11639;DHT22;5875;35.940;126.892;2023-05-10T21:49:43;14.00;99.90
11639;DHT22;5875;35.940;126.892;2023-05-10T21:52:10;13.90;99.90
11639;DHT22;5875;35.940;126.892;2023-05-10T21:54:37;14.00;99.90
11639;DHT22;5875;35.940;126.892;2023-05-10T21:57:04;14.00;99.90
11639;DHT22;5875;35.940;126.892;2023-05-10T21:59:31;14.10;99.90
11639;DHT22;5875;35.940;126.892;2023-05-10T22:01:59;14.10;99.90
11639;DHT22;5875;35.940;126.892;2023-05-10T22:04:26;14.20;99.90
11639;DHT22;5875;35.940;126.892;2023-05-10T22:06:53;14.30;99.90
11639;DHT22;5875;35.940;126.892;2023-05-10T22:09:20;14.40;99.90
11639;DHT22;5875;35.940;126.892;2023-05-10T22:11:49;14.50;99.90
11639;DHT22;5875;35.940;126.892;2023-05-10T22:14:16;14.60;99.90
11639;DHT22;5875;35.940;126.892;2023-05-10T22:16:44;14.70;99.90
11639;DHT22;5875;35.940;126.892;2023-05-10T22:19:11;14.70;99.90
11639;DHT22;5875;35.940;126.892;2023-05-10T22:21:38;14.80;99.90
11639;DHT22;5875;35.940;126.892;2023-05-10T22:24:05;14.90;99.90
11639;DHT22;5875;35.940;126.892;2023-05-10T22:26:33;15.00;99.90
11639;DHT22;5875;35.940;126.892;2023-05-10T22:29:00;15.20;99.90
11639;DHT22;5875;35.940;126.892;2023-05-10T22:31:27;15.40;99.90
11639;DHT22;5875;35.940;126.892;2023-05-10T22:33:54;15.40;99.90
11639;DHT22;5875;35.940;126.892;2023-05-10T22:36:21;15.50;99.90
11639;DHT22;5875;35.940;126.892;2023-05-10T22:38:48;15.70;99.90
11639;DHT22;5875;35.940;126.892;2023-05-10T22:41:15;15.80;99.90
11639;DHT22;5875;35.940;126.892;2023-05-10T22:43:43;15.90;99.90
11639;DHT22;5875;35.940;126.892;2023-05-10T22:46:10;16.10;99.90
11639;DHT22;5875;35.940;126.892;2023-05-10T22:48:38;16.20;99.90
11639;DHT22;5875;35.940;126.892;2023-05-10T22:51:05;16.40;99.90
11639;DHT22;5875;35.940;126.892;2023-05-10T22:53:33;16.50;99.90
11639;DHT22;5875;35.940;126.892;2023-05-10T22:56:00;16.60;99.90
11639;DHT22;5875;35.940;126.892;2023-05-10T22:58:27;16.70;99.90
11639;DHT22;5875;35.940;126.892;2023-05-10T23:08:16;16.90;99.90
11639;DHT22;5875;35.940;126.892;2023-05-10T23:10:43;17.60;99.90
11639;DHT22;5875;35.940;126.892;2023-05-10T23:13:10;17.70;99.90
11639;DHT22;5875;35.940;126.892;2023-05-10T23:15:38;17.90;99.90
11639;DHT22;5875;35.940;126.892;2023-05-10T23:18:05;18.10;99.90
11639;DHT22;5875;35.940;126.892;2023-05-10T23:20:35;18.30;99.90
11639;DHT22;5875;35.940;126.892;2023-05-10T23:23:02;18.30;99.90
11639;DHT22;5875;35.940;126.892;2023-05-10T23:25:29;18.50;99.90
11639;DHT22;5875;35.940;126.892;2023-05-10T23:27:56;18.80;99.90
11639;DHT22;5875;35.940;126.892;2023-05-10T23:30:23;18.90;99.90
11639;DHT22;5875;35.940;126.892;2023-05-10T23:32:50;19.20;99.90
11639;DHT22;5875;35.940;126.892;2023-05-10T23:35:17;19.30;99.90
11639;DHT22;5875;35.940;126.892;2023-05-10T23:42:39;19.30;99.90
11639;DHT22;5875;35.940;126.892;2023-05-10T23:45:07;19.90;99.90
11639;DHT22;5875;35.940;126.892;2023-05-10T23:52:30;20.10;99.90
11639;DHT22;5875;35.940;126.892;2023-05-10T23:54:57;20.70;99.90
11639;DHT22;5875;35.940;126.892;2023-05-10T23:57:25;21.00;99.90
11639;DHT22;5875;35.940;126.892;2023-05-10T23:59:52;21.00;99.90
